<?xml version="1.0" encoding="UTF-8" standalone="no" ?>
<gpx xmlns="http://www.topografix.com/GPX/1/1" creator="MapSource 6.16.3" version="1.1" xmlns:xsi="http://www.w3.org/2001/XMLSchema-instance" xsi:schemaLocation="http://www.topografix.com/GPX/1/1 http://www.topografix.com/GPX/1/1/gpx.xsd">

  <metadata>
    <link href="http://www.garmin.com">
      <text>Garmin International</text>
    </link>
    <time>2015-07-08T04:55:48Z</time>
    <bounds maxlat="54.201462278142571" maxlon="15.702370069921017" minlat="54.177835704758763" minlon="15.565496440976858"/>
  </metadata>

  <trk>
    <name>ACTIVE LOG 002</name>
    <extensions>
      <gpxx:TrackExtension xmlns:gpxx="http://www.garmin.com/xmlschemas/GpxExtensions/v3">
        <gpxx:DisplayColor>Green</gpxx:DisplayColor>
      </gpxx:TrackExtension>
    </extensions>
    <trkseg>
      <trkpt lat="54.177835704758763" lon="15.572814429178834">
        <ele>7.827880859375</ele>
        <time>2015-06-29T15:57:35Z</time>
      </trkpt>
      <trkpt lat="54.177862862125039" lon="15.572873940691352">
        <ele>4.4632568359375</ele>
        <time>2015-06-29T15:57:49Z</time>
      </trkpt>
      <trkpt lat="54.178455211222172" lon="15.57402309961617">
        <ele>6.3858642578125</ele>
        <time>2015-06-29T15:58:23Z</time>
      </trkpt>
      <trkpt lat="54.178958125412464" lon="15.57497737929225">
        <ele>5.424560546875</ele>
        <time>2015-06-29T15:58:45Z</time>
      </trkpt>
      <trkpt lat="54.1790063213557" lon="15.575034879148006">
        <ele>3.982666015625</ele>
        <time>2015-06-29T15:58:57Z</time>
      </trkpt>
      <trkpt lat="54.179173288866878" lon="15.574672445654869">
        <ele>2.5406494140625</ele>
        <time>2015-06-29T15:59:10Z</time>
      </trkpt>
      <trkpt lat="54.179782820865512" lon="15.572651904076338">
        <ele>1.579345703125</ele>
        <time>2015-06-29T15:59:48Z</time>
      </trkpt>
      <trkpt lat="54.179829591885209" lon="15.572033151984215">
        <ele>-0.3433837890625</ele>
        <time>2015-06-29T16:00:01Z</time>
      </trkpt>
      <trkpt lat="54.180005695670843" lon="15.569472396746278">
        <ele>3.501953125</ele>
        <time>2015-06-29T16:00:53Z</time>
      </trkpt>
      <trkpt lat="54.180235527455807" lon="15.568738728761673">
        <ele>1.0986328125</ele>
        <time>2015-06-29T16:01:10Z</time>
      </trkpt>
      <trkpt lat="54.181236829608679" lon="15.565496440976858">
        <ele>-0.8240966796875</ele>
        <time>2015-06-29T16:02:14Z</time>
      </trkpt>
      <trkpt lat="54.1815275978297" lon="15.565625857561827">
        <ele>1.579345703125</ele>
        <time>2015-06-29T16:02:25Z</time>
      </trkpt>
      <trkpt lat="54.182034702971578" lon="15.565745802596211">
        <ele>0.6180419921875</ele>
        <time>2015-06-29T16:02:40Z</time>
      </trkpt>
      <trkpt lat="54.183522909879684" lon="15.56600421667099">
        <ele>-1.3046875</ele>
        <time>2015-06-29T16:03:27Z</time>
      </trkpt>
      <trkpt lat="54.185165679082274" lon="15.569942789152265">
        <ele>-2.2659912109375</ele>
        <time>2015-06-29T16:05:34Z</time>
      </trkpt>
      <trkpt lat="54.184621023014188" lon="15.570590039715171">
        <ele>-2.2659912109375</ele>
        <time>2015-06-29T16:05:56Z</time>
      </trkpt>
      <trkpt lat="54.184678690508008" lon="15.571487825363874">
        <ele>-1.7852783203125</ele>
        <time>2015-06-29T16:06:07Z</time>
      </trkpt>
      <trkpt lat="54.184823781251907" lon="15.572443529963493">
        <ele>-3.7078857421875</ele>
        <time>2015-06-29T16:06:18Z</time>
      </trkpt>
      <trkpt lat="54.185722321271896" lon="15.58330312371254">
        <ele>-4.6693115234375</ele>
        <time>2015-06-29T16:09:29Z</time>
      </trkpt>
      <trkpt lat="54.186312407255173" lon="15.58956247754395">
        <ele>-2.7467041015625</ele>
        <time>2015-06-29T16:11:10Z</time>
      </trkpt>
      <trkpt lat="54.186559338122606" lon="15.590942390263081">
        <ele>-1.7852783203125</ele>
        <time>2015-06-29T16:11:33Z</time>
      </trkpt>
      <trkpt lat="54.186356831341982" lon="15.591453434899449">
        <ele>-2.7467041015625</ele>
        <time>2015-06-29T16:11:41Z</time>
      </trkpt>
      <trkpt lat="54.187237853184342" lon="15.592696471139789">
        <ele>-0.3433837890625</ele>
        <time>2015-06-29T16:12:00Z</time>
      </trkpt>
      <trkpt lat="54.188657412305474" lon="15.59871107339859">
        <ele>-0.8240966796875</ele>
        <time>2015-06-29T16:13:45Z</time>
      </trkpt>
      <trkpt lat="54.189183544367552" lon="15.601404933258891">
        <ele>-5.14990234375</ele>
        <time>2015-06-29T16:14:27Z</time>
      </trkpt>
      <trkpt lat="54.189459728077054" lon="15.602675210684538">
        <ele>-5.14990234375</ele>
        <time>2015-06-29T16:14:48Z</time>
      </trkpt>
      <trkpt lat="54.190102703869343" lon="15.606110701337457">
        <ele>-5.14990234375</ele>
        <time>2015-06-29T16:15:51Z</time>
      </trkpt>
      <trkpt lat="54.190689185634255" lon="15.608784863725305">
        <ele>-4.6693115234375</ele>
        <time>2015-06-29T16:16:40Z</time>
      </trkpt>
      <trkpt lat="54.190368242561817" lon="15.610477002337575">
        <ele>-0.3433837890625</ele>
        <time>2015-06-29T16:17:09Z</time>
      </trkpt>
      <trkpt lat="54.190765209496021" lon="15.610810266807675">
        <ele>-0.3433837890625</ele>
        <time>2015-06-29T16:17:21Z</time>
      </trkpt>
      <trkpt lat="54.191507929936051" lon="15.613343361765146">
        <ele>-0.8240966796875</ele>
        <time>2015-06-29T16:17:58Z</time>
      </trkpt>
      <trkpt lat="54.191475575789809" lon="15.61372465454042">
        <ele>-1.3046875</ele>
        <time>2015-06-29T16:18:03Z</time>
      </trkpt>
      <trkpt lat="54.191795596852899" lon="15.615579150617123">
        <ele>0.137451171875</ele>
        <time>2015-06-29T16:18:31Z</time>
      </trkpt>
      <trkpt lat="54.192349053919315" lon="15.619310941547155">
        <ele>-0.8240966796875</ele>
        <time>2015-06-29T16:19:21Z</time>
      </trkpt>
      <trkpt lat="54.192422647029161" lon="15.619568014517426">
        <ele>-1.7852783203125</ele>
        <time>2015-06-29T16:19:24Z</time>
      </trkpt>
      <trkpt lat="54.192682150751352" lon="15.621115481480956">
        <ele>-0.3433837890625</ele>
        <time>2015-06-29T16:19:36Z</time>
      </trkpt>
      <trkpt lat="54.193063778802752" lon="15.623892489820719">
        <ele>1.0986328125</ele>
        <time>2015-06-29T16:20:16Z</time>
      </trkpt>
      <trkpt lat="54.193772552534938" lon="15.62790909782052">
        <ele>2.06005859375</ele>
        <time>2015-06-29T16:21:21Z</time>
      </trkpt>
      <trkpt lat="54.194179326295853" lon="15.629806509241462">
        <ele>3.982666015625</ele>
        <time>2015-06-29T16:24:46Z</time>
      </trkpt>
      <trkpt lat="54.194362135604024" lon="15.630700439214706">
        <ele>2.5406494140625</ele>
        <time>2015-06-29T16:25:05Z</time>
      </trkpt>
      <trkpt lat="54.194449726492167" lon="15.63107343390584">
        <ele>2.06005859375</ele>
        <time>2015-06-29T16:25:20Z</time>
      </trkpt>
      <trkpt lat="54.194520050659776" lon="15.631548268720508">
        <ele>0.6180419921875</ele>
        <time>2015-06-29T16:25:34Z</time>
      </trkpt>
      <trkpt lat="54.194750720635056" lon="15.633376529440284">
        <ele>0.137451171875</ele>
        <time>2015-06-29T16:26:10Z</time>
      </trkpt>
      <trkpt lat="54.19563191011548" lon="15.63975490629673">
        <ele>3.021240234375</ele>
        <time>2015-06-29T16:27:58Z</time>
      </trkpt>
      <trkpt lat="54.195801476016641" lon="15.640342896804214">
        <ele>2.06005859375</ele>
        <time>2015-06-29T16:28:07Z</time>
      </trkpt>
      <trkpt lat="54.196218475699425" lon="15.641592303290963">
        <ele>2.5406494140625</ele>
        <time>2015-06-29T16:28:25Z</time>
      </trkpt>
      <trkpt lat="54.196883328258991" lon="15.646074777469039">
        <ele>-0.3433837890625</ele>
        <time>2015-06-29T16:29:33Z</time>
      </trkpt>
      <trkpt lat="54.196974020451307" lon="15.648126164451241">
        <ele>-0.8240966796875</ele>
        <time>2015-06-29T16:29:55Z</time>
      </trkpt>
      <trkpt lat="54.197121793404222" lon="15.651091681793332">
        <ele>0.6180419921875</ele>
        <time>2015-06-29T16:30:38Z</time>
      </trkpt>
      <trkpt lat="54.197233775630593" lon="15.652764039114118">
        <ele>0.137451171875</ele>
        <time>2015-06-29T16:31:03Z</time>
      </trkpt>
      <trkpt lat="54.197778012603521" lon="15.656538410112262">
        <ele>-1.3046875</ele>
        <time>2015-06-29T16:31:52Z</time>
      </trkpt>
      <trkpt lat="54.197792178019881" lon="15.656908471137285">
        <ele>-1.7852783203125</ele>
        <time>2015-06-29T16:31:57Z</time>
      </trkpt>
      <trkpt lat="54.198055705055594" lon="15.659021129831672">
        <ele>-0.3433837890625</ele>
        <time>2015-06-29T16:32:28Z</time>
      </trkpt>
      <trkpt lat="54.198113037273288" lon="15.66039358265698">
        <ele>-0.3433837890625</ele>
        <time>2015-06-29T16:32:50Z</time>
      </trkpt>
      <trkpt lat="54.197436198592186" lon="15.660717375576496">
        <ele>-2.2659912109375</ele>
        <time>2015-06-29T16:33:10Z</time>
      </trkpt>
      <trkpt lat="54.197296723723412" lon="15.660826424136758">
        <ele>-3.227294921875</ele>
        <time>2015-06-29T16:33:15Z</time>
      </trkpt>
      <trkpt lat="54.197363443672657" lon="15.661287177354097">
        <ele>-2.7467041015625</ele>
        <time>2015-06-29T16:33:28Z</time>
      </trkpt>
      <trkpt lat="54.197392780333757" lon="15.661436123773456">
        <ele>-2.7467041015625</ele>
        <time>2015-06-29T16:33:32Z</time>
      </trkpt>
      <trkpt lat="54.198111612349749" lon="15.663195149973035">
        <ele>0.6180419921875</ele>
        <time>2015-06-29T16:34:14Z</time>
      </trkpt>
      <trkpt lat="54.197793183848262" lon="15.663359854370356">
        <ele>1.579345703125</ele>
        <time>2015-06-29T16:34:27Z</time>
      </trkpt>
      <trkpt lat="54.196925656870008" lon="15.663818009197712">
        <ele>1.579345703125</ele>
        <time>2015-06-29T16:34:57Z</time>
      </trkpt>
      <trkpt lat="54.197059348225594" lon="15.666360659524798">
        <ele>2.06005859375</ele>
        <time>2015-06-29T16:35:40Z</time>
      </trkpt>
      <trkpt lat="54.197017271071672" lon="15.66809194162488">
        <ele>2.5406494140625</ele>
        <time>2015-06-29T16:36:11Z</time>
      </trkpt>
      <trkpt lat="54.196771094575524" lon="15.668187662959099">
        <ele>3.501953125</ele>
        <time>2015-06-29T16:36:27Z</time>
      </trkpt>
      <trkpt lat="54.196715774014592" lon="15.668268380686641">
        <ele>3.982666015625</ele>
        <time>2015-06-29T16:36:35Z</time>
      </trkpt>
      <trkpt lat="54.196995059028268" lon="15.668793423101306">
        <ele>3.982666015625</ele>
        <time>2015-06-29T16:36:57Z</time>
      </trkpt>
      <trkpt lat="54.197002938017249" lon="15.669799754396081">
        <ele>3.982666015625</ele>
        <time>2015-06-29T16:37:14Z</time>
      </trkpt>
      <trkpt lat="54.197035627439618" lon="15.672696456313133">
        <ele>3.021240234375</ele>
        <time>2015-06-29T16:38:02Z</time>
      </trkpt>
      <trkpt lat="54.196925992146134" lon="15.678048469126225">
        <ele>2.06005859375</ele>
        <time>2015-06-29T16:39:22Z</time>
      </trkpt>
      <trkpt lat="54.196864636614919" lon="15.680470755323768">
        <ele>3.021240234375</ele>
        <time>2015-06-29T16:39:57Z</time>
      </trkpt>
      <trkpt lat="54.19678601436317" lon="15.681805573403835">
        <ele>1.579345703125</ele>
        <time>2015-06-29T16:40:20Z</time>
      </trkpt>
      <trkpt lat="54.19686321169138" lon="15.682002045214176">
        <ele>1.579345703125</ele>
        <time>2015-06-29T16:40:25Z</time>
      </trkpt>
      <trkpt lat="54.197795363143086" lon="15.682610487565398">
        <ele>-0.3433837890625</ele>
        <time>2015-06-29T16:40:57Z</time>
      </trkpt>
      <trkpt lat="54.19786250218749" lon="15.682727582752705">
        <ele>0.137451171875</ele>
        <time>2015-06-29T16:41:09Z</time>
      </trkpt>
      <trkpt lat="54.197900891304016" lon="15.682721044868231">
        <ele>0.137451171875</ele>
        <time>2015-06-29T16:41:33Z</time>
      </trkpt>
      <trkpt lat="54.197892509400845" lon="15.682699251919985">
        <ele>2.5406494140625</ele>
        <time>2015-06-29T16:42:14Z</time>
      </trkpt>
      <trkpt lat="54.197751274332404" lon="15.682711992412806">
        <ele>2.06005859375</ele>
        <time>2015-06-29T16:42:20Z</time>
      </trkpt>
      <trkpt lat="54.197351709008217" lon="15.683173332363367">
        <ele>3.021240234375</ele>
        <time>2015-06-29T16:42:33Z</time>
      </trkpt>
      <trkpt lat="54.19801689684391" lon="15.687305191531777">
        <ele>1.579345703125</ele>
        <time>2015-06-29T16:43:33Z</time>
      </trkpt>
      <trkpt lat="54.198728520423174" lon="15.692030405625701">
        <ele>-0.3433837890625</ele>
        <time>2015-06-29T16:44:44Z</time>
      </trkpt>
      <trkpt lat="54.199167229235172" lon="15.69300857372582">
        <ele>0.6180419921875</ele>
        <time>2015-06-29T16:45:04Z</time>
      </trkpt>
      <trkpt lat="54.199810875579715" lon="15.696570966392756">
        <ele>4.94384765625</ele>
        <time>2015-06-29T16:46:09Z</time>
      </trkpt>
      <trkpt lat="54.2006975132972" lon="15.701348483562469">
        <ele>10.231201171875</ele>
        <time>2015-06-29T16:47:33Z</time>
      </trkpt>
      <trkpt lat="54.200731376186013" lon="15.701957093551755">
        <ele>9.2698974609375</ele>
        <time>2015-06-29T16:48:21Z</time>
      </trkpt>
      <trkpt lat="54.200906390324235" lon="15.70215574465692">
        <ele>9.2698974609375</ele>
        <time>2015-06-29T16:48:44Z</time>
      </trkpt>
      <trkpt lat="54.201315427199006" lon="15.702014761045575">
        <ele>6.866455078125</ele>
        <time>2015-06-29T16:48:57Z</time>
      </trkpt>
      <trkpt lat="54.201443083584309" lon="15.70191484875977">
        <ele>6.866455078125</ele>
        <time>2015-06-29T16:49:02Z</time>
      </trkpt>
      <trkpt lat="54.201462278142571" lon="15.701688956469297">
        <ele>5.424560546875</ele>
        <time>2015-06-29T16:49:07Z</time>
      </trkpt>
      <trkpt lat="54.201307715848088" lon="15.700633339583874">
        <ele>3.982666015625</ele>
        <time>2015-06-29T16:49:26Z</time>
      </trkpt>
      <trkpt lat="54.201110322028399" lon="15.70060190744698">
        <ele>3.982666015625</ele>
        <time>2015-06-29T16:49:36Z</time>
      </trkpt>
      <trkpt lat="54.201035052537918" lon="15.700645828619599">
        <ele>3.501953125</ele>
        <time>2015-06-29T16:49:41Z</time>
      </trkpt>
      <trkpt lat="54.201044188812375" lon="15.700858728960156">
        <ele>2.5406494140625</ele>
        <time>2015-06-29T16:50:15Z</time>
      </trkpt>
      <trkpt lat="54.200945114716887" lon="15.701160728931427">
        <ele>3.501953125</ele>
        <time>2015-06-29T16:51:03Z</time>
      </trkpt>
      <trkpt lat="54.200951401144266" lon="15.70145208388567">
        <ele>4.94384765625</ele>
        <time>2015-06-29T17:06:40Z</time>
      </trkpt>
      <trkpt lat="54.200823409482837" lon="15.701405061408877">
        <ele>3.982666015625</ele>
        <time>2015-06-29T17:08:15Z</time>
      </trkpt>
      <trkpt lat="54.200937738642097" lon="15.700941206887364">
        <ele>2.5406494140625</ele>
        <time>2015-06-29T17:08:27Z</time>
      </trkpt>
      <trkpt lat="54.200930865481496" lon="15.700841713696718">
        <ele>3.021240234375</ele>
        <time>2015-06-29T17:08:32Z</time>
      </trkpt>
      <trkpt lat="54.201002614572644" lon="15.700773317366838">
        <ele>2.5406494140625</ele>
        <time>2015-06-29T17:08:36Z</time>
      </trkpt>
      <trkpt lat="54.201203864067793" lon="15.700690839439631">
        <ele>1.579345703125</ele>
        <time>2015-06-29T17:08:45Z</time>
      </trkpt>
      <trkpt lat="54.201320791617036" lon="15.700981691479683">
        <ele>1.0986328125</ele>
        <time>2015-06-29T17:08:55Z</time>
      </trkpt>
      <trkpt lat="54.201342836022377" lon="15.701053943485022">
        <ele>1.0986328125</ele>
        <time>2015-06-29T17:08:57Z</time>
      </trkpt>
      <trkpt lat="54.20145439915359" lon="15.702066393569112">
        <ele>0.6180419921875</ele>
        <time>2015-06-29T17:09:26Z</time>
      </trkpt>
      <trkpt lat="54.201300675049424" lon="15.702184243127704">
        <ele>0.6180419921875</ele>
        <time>2015-06-29T17:09:32Z</time>
      </trkpt>
      <trkpt lat="54.200762640684843" lon="15.702370069921017">
        <ele>2.06005859375</ele>
        <time>2015-06-29T17:09:46Z</time>
      </trkpt>
      <trkpt lat="54.200718132779002" lon="15.702311815693974">
        <ele>3.982666015625</ele>
        <time>2015-06-29T17:10:03Z</time>
      </trkpt>
      <trkpt lat="54.200463490560651" lon="15.700744902715087">
        <ele>6.866455078125</ele>
        <time>2015-06-29T17:10:40Z</time>
      </trkpt>
      <trkpt lat="54.199929647147655" lon="15.697757340967655">
        <ele>6.3858642578125</ele>
        <time>2015-06-29T17:11:20Z</time>
      </trkpt>
      <trkpt lat="54.199336376041174" lon="15.694364262744784">
        <ele>6.866455078125</ele>
        <time>2015-06-29T17:12:02Z</time>
      </trkpt>
      <trkpt lat="54.19919203966856" lon="15.693423226475716">
        <ele>5.9052734375</ele>
        <time>2015-06-29T17:12:12Z</time>
      </trkpt>
      <trkpt lat="54.199139904230833" lon="15.693023996427655">
        <ele>4.94384765625</ele>
        <time>2015-06-29T17:12:16Z</time>
      </trkpt>
      <trkpt lat="54.198970925062895" lon="15.692674303427339">
        <ele>4.4632568359375</ele>
        <time>2015-06-29T17:12:21Z</time>
      </trkpt>
      <trkpt lat="54.198885848745704" lon="15.692553855478764">
        <ele>4.4632568359375</ele>
        <time>2015-06-29T17:12:23Z</time>
      </trkpt>
      <trkpt lat="54.197888737544417" lon="15.686683002859354">
        <ele>2.5406494140625</ele>
        <time>2015-06-29T17:13:28Z</time>
      </trkpt>
      <trkpt lat="54.197366880252957" lon="15.683178445324302">
        <ele>3.982666015625</ele>
        <time>2015-06-29T17:14:10Z</time>
      </trkpt>
      <trkpt lat="54.196994304656982" lon="15.682135485112667">
        <ele>3.021240234375</ele>
        <time>2015-06-29T17:14:30Z</time>
      </trkpt>
      <trkpt lat="54.196584932506084" lon="15.681898277252913">
        <ele>2.5406494140625</ele>
        <time>2015-06-29T17:14:40Z</time>
      </trkpt>
      <trkpt lat="54.195934664458036" lon="15.681606167927384">
        <ele>2.06005859375</ele>
        <time>2015-06-29T17:14:57Z</time>
      </trkpt>
      <trkpt lat="54.195887558162212" lon="15.681607257574797">
        <ele>3.021240234375</ele>
        <time>2015-06-29T17:15:38Z</time>
      </trkpt>
      <trkpt lat="54.195262938737869" lon="15.681283883750439">
        <ele>3.021240234375</ele>
        <time>2015-06-29T17:15:49Z</time>
      </trkpt>
      <trkpt lat="54.195110723376274" lon="15.681169219315052">
        <ele>3.021240234375</ele>
        <time>2015-06-29T17:15:51Z</time>
      </trkpt>
      <trkpt lat="54.194744685664773" lon="15.680799912661314">
        <ele>3.021240234375</ele>
        <time>2015-06-29T17:15:56Z</time>
      </trkpt>
      <trkpt lat="54.194503035396338" lon="15.680175209417939">
        <ele>3.982666015625</ele>
        <time>2015-06-29T17:16:01Z</time>
      </trkpt>
      <trkpt lat="54.194101206958294" lon="15.67760699428618">
        <ele>5.424560546875</ele>
        <time>2015-06-29T17:16:29Z</time>
      </trkpt>
      <trkpt lat="54.193482119590044" lon="15.673682084307075">
        <ele>5.424560546875</ele>
        <time>2015-06-29T17:17:20Z</time>
      </trkpt>
      <trkpt lat="54.193607345223427" lon="15.67220326513052">
        <ele>5.9052734375</ele>
        <time>2015-06-29T17:17:39Z</time>
      </trkpt>
      <trkpt lat="54.193704323843122" lon="15.671794479712844">
        <ele>5.9052734375</ele>
        <time>2015-06-29T17:17:45Z</time>
      </trkpt>
      <trkpt lat="54.193817814812064" lon="15.670997947454453">
        <ele>5.424560546875</ele>
        <time>2015-06-29T17:17:56Z</time>
      </trkpt>
      <trkpt lat="54.193737432360649" lon="15.670812875032425">
        <ele>5.424560546875</ele>
        <time>2015-06-29T17:18:00Z</time>
      </trkpt>
      <trkpt lat="54.192084101960063" lon="15.669900504872203">
        <ele>5.424560546875</ele>
        <time>2015-06-29T17:18:45Z</time>
      </trkpt>
      <trkpt lat="54.192095249891281" lon="15.669611748307943">
        <ele>5.424560546875</ele>
        <time>2015-06-29T17:18:49Z</time>
      </trkpt>
      <trkpt lat="54.192692628130317" lon="15.666127223521471">
        <ele>8.30859375</ele>
        <time>2015-06-29T17:19:33Z</time>
      </trkpt>
      <trkpt lat="54.192649964243174" lon="15.665164645761251">
        <ele>8.30859375</ele>
        <time>2015-06-29T17:19:49Z</time>
      </trkpt>
      <trkpt lat="54.192628841847181" lon="15.665423227474093">
        <ele>30.8995361328125</ele>
        <time>2015-06-29T17:22:52Z</time>
      </trkpt>
      <trkpt lat="54.192727915942669" lon="15.665531689301133">
        <ele>29.9381103515625</ele>
        <time>2015-06-29T17:36:33Z</time>
      </trkpt>
      <trkpt lat="54.192725820466876" lon="15.665924800559878">
        <ele>23.6895751953125</ele>
        <time>2015-06-29T17:36:42Z</time>
      </trkpt>
      <trkpt lat="54.192672176286578" lon="15.666975304484367">
        <ele>19.8443603515625</ele>
        <time>2015-06-29T17:37:03Z</time>
      </trkpt>
      <trkpt lat="54.192387778311968" lon="15.668213730677962">
        <ele>13.5958251953125</ele>
        <time>2015-06-29T17:37:21Z</time>
      </trkpt>
      <trkpt lat="54.192108241841197" lon="15.669677378609776">
        <ele>13.1151123046875</ele>
        <time>2015-06-29T17:37:45Z</time>
      </trkpt>
      <trkpt lat="54.192211758345366" lon="15.669859601184726">
        <ele>12.15380859375</ele>
        <time>2015-06-29T17:37:50Z</time>
      </trkpt>
      <trkpt lat="54.193716645240784" lon="15.670715561136603">
        <ele>9.2698974609375</ele>
        <time>2015-06-29T17:38:29Z</time>
      </trkpt>
      <trkpt lat="54.193811528384686" lon="15.671193245798349">
        <ele>8.7891845703125</ele>
        <time>2015-06-29T17:38:37Z</time>
      </trkpt>
      <trkpt lat="54.193720165640116" lon="15.672185411676764">
        <ele>8.30859375</ele>
        <time>2015-06-29T17:38:51Z</time>
      </trkpt>
      <trkpt lat="54.193531908094883" lon="15.672966688871384">
        <ele>8.30859375</ele>
        <time>2015-06-29T17:39:03Z</time>
      </trkpt>
      <trkpt lat="54.193476838991046" lon="15.673322584480047">
        <ele>8.30859375</ele>
        <time>2015-06-29T17:39:08Z</time>
      </trkpt>
      <trkpt lat="54.193457392975688" lon="15.673836730420589">
        <ele>7.827880859375</ele>
        <time>2015-06-29T17:39:15Z</time>
      </trkpt>
      <trkpt lat="54.193801218643785" lon="15.676044691354036">
        <ele>6.3858642578125</ele>
        <time>2015-06-29T17:39:45Z</time>
      </trkpt>
      <trkpt lat="54.193871458992362" lon="15.676509384065866">
        <ele>5.9052734375</ele>
        <time>2015-06-29T17:39:51Z</time>
      </trkpt>
      <trkpt lat="54.194202125072479" lon="15.678351726382971">
        <ele>5.9052734375</ele>
        <time>2015-06-29T17:40:16Z</time>
      </trkpt>
      <trkpt lat="54.194493563845754" lon="15.680280150845647">
        <ele>4.4632568359375</ele>
        <time>2015-06-29T17:40:39Z</time>
      </trkpt>
      <trkpt lat="54.19460479170084" lon="15.680670412257314">
        <ele>4.4632568359375</ele>
        <time>2015-06-29T17:40:44Z</time>
      </trkpt>
      <trkpt lat="54.195428062230349" lon="15.681470464915037">
        <ele>3.982666015625</ele>
        <time>2015-06-29T17:41:03Z</time>
      </trkpt>
      <trkpt lat="54.197161020711064" lon="15.682322066277266">
        <ele>4.94384765625</ele>
        <time>2015-06-29T17:41:39Z</time>
      </trkpt>
      <trkpt lat="54.197329329326749" lon="15.682697994634509">
        <ele>3.982666015625</ele>
        <time>2015-06-29T17:41:45Z</time>
      </trkpt>
      <trkpt lat="54.197546420618892" lon="15.684371190145612">
        <ele>2.5406494140625</ele>
        <time>2015-06-29T17:42:03Z</time>
      </trkpt>
      <trkpt lat="54.197971047833562" lon="15.686941668391228">
        <ele>2.5406494140625</ele>
        <time>2015-06-29T17:42:27Z</time>
      </trkpt>
      <trkpt lat="54.198798760771751" lon="15.692497109994292">
        <ele>2.06005859375</ele>
        <time>2015-06-29T17:43:21Z</time>
      </trkpt>
      <trkpt lat="54.198964387178421" lon="15.692777233198285">
        <ele>1.579345703125</ele>
        <time>2015-06-29T17:43:26Z</time>
      </trkpt>
      <trkpt lat="54.199040159583092" lon="15.692976722493768">
        <ele>1.579345703125</ele>
        <time>2015-06-29T17:43:29Z</time>
      </trkpt>
      <trkpt lat="54.200553428381681" lon="15.700880689546466">
        <ele>7.34716796875</ele>
        <time>2015-06-29T17:45:39Z</time>
      </trkpt>
      <trkpt lat="54.200733304023743" lon="15.70114622823894">
        <ele>6.866455078125</ele>
        <time>2015-06-29T17:45:42Z</time>
      </trkpt>
      <trkpt lat="54.200964141637087" lon="15.7022725045681">
        <ele>5.424560546875</ele>
        <time>2015-06-29T17:46:00Z</time>
      </trkpt>
      <trkpt lat="54.201022060588002" lon="15.702299745753407">
        <ele>4.94384765625</ele>
        <time>2015-06-29T17:46:09Z</time>
      </trkpt>
      <trkpt lat="54.201341075822711" lon="15.702116601169109">
        <ele>3.501953125</ele>
        <time>2015-06-29T17:46:21Z</time>
      </trkpt>
      <trkpt lat="54.201367562636733" lon="15.702069830149412">
        <ele>3.021240234375</ele>
        <time>2015-06-29T17:46:22Z</time>
      </trkpt>
      <trkpt lat="54.201385164633393" lon="15.70180730894208">
        <ele>2.5406494140625</ele>
        <time>2015-06-29T17:46:26Z</time>
      </trkpt>
      <trkpt lat="54.201194057241082" lon="15.700677093118429">
        <ele>2.06005859375</ele>
        <time>2015-06-29T17:46:44Z</time>
      </trkpt>
      <trkpt lat="54.201062796637416" lon="15.70069033652544">
        <ele>2.06005859375</ele>
        <time>2015-06-29T17:46:49Z</time>
      </trkpt>
      <trkpt lat="54.201008984819055" lon="15.700871804729104">
        <ele>3.021240234375</ele>
        <time>2015-06-29T17:46:55Z</time>
      </trkpt>
      <trkpt lat="54.201003788039088" lon="15.701076658442616">
        <ele>3.982666015625</ele>
        <time>2015-06-29T17:47:09Z</time>
      </trkpt>
    </trkseg>
  </trk>

</gpx>
